Terminal Aerodrome Forecast
Issued by NWS

Home | Current Version | Previous Version | Text Only | Print | Product List | Glossary On
Versions: 1 2 3 4 5 6 7 8 9 10 11 12 13 14 15 16 17
000
FTUS44 KLZK 261740
TAFHOT
TAF
KHOT 261740Z 2618/2718 21010KT P6SM OVC017 WS020/22035KT
     FM262200 20009KT P6SM BKN025 OVC050
     FM271000 19006KT 5SM BR BKN007 OVC015
     FM271500 22008KT P6SM OVC025=

USA.gov is the U.S. government's official web portal to all federal, state and local government web resources and services.